createdAt,value
2023-02-28T00:01:09.156Z,103098.41
2023-02-28T00:06:06.991Z,103102.53
2023-02-28T00:11:09.837Z,103087.53
2023-02-28T00:16:10.235Z,103098.72
2023-02-28T00:21:07.257Z,103102.06
2023-02-28T00:26:04.068Z,103105.16
2023-02-28T00:31:01.157Z,103105.56
2023-02-28T00:36:08.877Z,103098.91
2023-02-28T00:41:06.121Z,103098.69
2023-02-28T00:46:03.448Z,103102.84
2023-02-28T00:50:59.923Z,103105.38
2023-02-28T00:55:56.365Z,103107.03
2023-02-28T01:00:54.625Z,103107.00
2023-02-28T01:05:51.499Z,103115.47
2023-02-28T01:10:48.576Z,103121.91
2023-02-28T01:15:53.701Z,103117.31
2023-02-28T01:20:50.243Z,103119.38
2023-02-28T01:25:46.740Z,103129.78
2023-02-28T01:30:43.283Z,103128.97
2023-02-28T01:35:39.719Z,103121.50
2023-02-28T01:40:36.111Z,103123.34
2023-02-28T01:45:36.567Z,103112.38
2023-02-28T01:50:40.081Z,103112.59
2023-02-28T01:55:38.122Z,103109.50
2023-02-28T02:00:34.563Z,103109.06
2023-02-28T02:05:32.771Z,103115.28
2023-02-28T02:10:41.843Z,103109.84
2023-02-28T02:15:45.497Z,103108.81
2023-02-28T02:21:09.817Z,103110.88
2023-02-28T02:26:43.972Z,103118.53
2023-02-28T02:31:53.672Z,103102.28
2023-02-28T02:37:16.290Z,103114.25
2023-02-28T02:42:20.053Z,103096.25
2023-02-28T02:47:20.759Z,103098.16
2023-02-28T02:52:22.146Z,103100.88
2023-02-28T02:57:30.304Z,103106.91
2023-02-28T03:02:29.274Z,103100.09
2023-02-28T03:07:26.502Z,103104.34
2023-02-28T03:12:29.396Z,103099.13
2023-02-28T03:17:57.888Z,103114.47
2023-02-28T03:23:15.892Z,103107.75
2023-02-28T03:28:37.485Z,103117.47
2023-02-28T03:33:40.313Z,103113.03
2023-02-28T03:38:45.958Z,103124.56
2023-02-28T03:43:49.556Z,103118.91
2023-02-28T03:48:54.524Z,103118.38
2023-02-28T03:54:03.022Z,103124.34
2023-02-28T03:59:14.034Z,103133.03
2023-02-28T04:04:12.396Z,103128.88
2023-02-28T04:14:08.352Z,103131.56
2023-02-28T04:19:06.653Z,103133.97
2023-02-28T04:24:04.102Z,103134.59
2023-02-28T04:29:01.528Z,103141.06
2023-02-28T04:33:58.256Z,103143.00
2023-02-28T04:38:54.778Z,103135.50
2023-02-28T04:43:54.375Z,103139.56
2023-02-28T04:48:50.843Z,103147.34
2023-02-28T04:53:49.288Z,103146.84
2023-02-28T04:58:46.105Z,103147.94
2023-02-28T05:03:43.235Z,103152.84
2023-02-28T05:08:40.464Z,103147.81
2023-02-28T05:13:36.897Z,103154.25
2023-02-28T05:18:33.305Z,103155.56
2023-02-28T05:23:30.233Z,103165.66
2023-02-28T05:28:26.756Z,103158.31
2023-02-28T05:33:23.140Z,103172.09
2023-02-28T05:38:19.636Z,103175.13
2023-02-28T05:43:16.023Z,103172.44
2023-02-28T05:48:12.412Z,103158.53
2023-02-28T05:53:09.130Z,103169.28
2023-02-28T05:58:05.598Z,103180.19
2023-02-28T06:03:03.170Z,103179.88
2023-02-28T06:07:59.692Z,103178.56
2023-02-28T06:12:56.063Z,103189.31
2023-02-28T06:17:53.230Z,103189.31
2023-02-28T06:22:51.659Z,103200.38
2023-02-28T06:27:49.230Z,103189.63
2023-02-28T06:32:45.686Z,103200.38
2023-02-28T06:37:42.846Z,103211.78
2023-02-28T06:42:39.267Z,103208.41
2023-02-28T06:47:37.208Z,103209.53
2023-02-28T06:52:37.053Z,103215.41
2023-02-28T06:57:35.597Z,103218.44
2023-02-28T07:02:32.648Z,103208.28
2023-02-28T07:07:29.102Z,103220.34
2023-02-28T07:12:25.560Z,103221.88
2023-02-28T07:17:21.995Z,103217.84
2023-02-28T07:22:18.441Z,103220.66
2023-02-28T07:27:24.719Z,103227.66
2023-02-28T07:32:21.326Z,103222.28
2023-02-28T07:37:17.743Z,103214.75
2023-02-28T07:42:14.146Z,103221.44
2023-02-28T07:47:11.124Z,103223.72
2023-02-28T07:52:08.019Z,103225.84
2023-02-28T07:57:04.392Z,103227.25
2023-02-28T08:02:00.890Z,103231.56
2023-02-28T08:06:57.389Z,103232.59
2023-02-28T08:11:53.779Z,103234.03
2023-02-28T08:16:50.199Z,103235.16
2023-02-28T08:21:46.622Z,103231.63
2023-02-28T08:26:43.099Z,103233.47
2023-02-28T08:31:39.836Z,103231.22
2023-02-28T08:36:36.487Z,103234.63
2023-02-28T08:41:33.268Z,103227.59
2023-02-28T08:46:29.670Z,103221.97
2023-02-28T08:51:29.210Z,103217.97
2023-02-28T08:56:26.197Z,103222.31
2023-02-28T09:01:28.502Z,103227.19
2023-02-28T09:06:26.016Z,103214.06
2023-02-28T09:11:22.421Z,103225.38
2023-02-28T09:16:18.914Z,103213.84
2023-02-28T09:21:18.642Z,103213.09
2023-02-28T09:26:20.688Z,103214.34
2023-02-28T09:31:23.242Z,103216.47
2023-02-28T09:36:20.036Z,103216.09
2023-02-28T09:41:18.024Z,103209.84
2023-02-28T09:46:30.489Z,103213.97
2023-02-28T09:52:00.582Z,103230.91
2023-02-28T09:57:06.700Z,103221.00
2023-02-28T10:02:53.707Z,103225.06
2023-02-28T10:08:06.399Z,103223.59
2023-02-28T10:13:07.462Z,103212.84
2023-02-28T10:18:13.808Z,103216.00
2023-02-28T10:23:18.030Z,103213.13
2023-02-28T10:28:17.391Z,103210.19
2023-02-28T10:33:24.342Z,103211.94
2023-02-28T10:38:25.718Z,103213.25
2023-02-28T10:43:23.952Z,103213.72
2023-02-28T10:48:20.352Z,103213.94
2023-02-28T10:53:25.802Z,103209.91
2023-02-28T10:58:27.736Z,103216.09
2023-02-28T11:03:35.723Z,103217.19
2023-02-28T11:08:32.239Z,103213.84
2023-02-28T11:13:38.800Z,103205.94
2023-02-28T11:18:55.990Z,103217.34
2023-02-28T11:23:59.469Z,103206.31
2023-02-28T11:29:11.855Z,103204.38
2023-02-28T11:34:25.995Z,103202.13
2023-02-28T11:39:22.480Z,103193.28
2023-02-28T11:44:59.907Z,103175.47
2023-02-28T11:50:27.218Z,103185.06
2023-02-28T11:55:29.669Z,103175.31
2023-02-28T12:00:39.871Z,103167.44
2023-02-28T12:05:55.836Z,103154.53
2023-02-28T12:11:10.670Z,103157.22
2023-02-28T12:16:39.239Z,103151.09
2023-02-28T12:22:02.743Z,103142.56
2023-02-28T12:27:01.548Z,103127.28
2023-02-28T12:32:10.393Z,103128.97
2023-02-28T12:37:17.827Z,103113.06
2023-02-28T12:42:29.493Z,103107.78
2023-02-28T12:47:26.001Z,103105.19
2023-02-28T12:52:32.477Z,103092.97
2023-02-28T12:57:35.134Z,103082.09
2023-02-28T13:03:12.054Z,103076.06
2023-02-28T13:08:37.813Z,103077.06
2023-02-28T13:13:35.575Z,103058.78
2023-02-28T13:18:41.052Z,103058.28
2023-02-28T13:23:56.760Z,103063.19
2023-02-28T13:28:54.643Z,103054.81
2023-02-28T13:33:58.071Z,103061.03
2023-02-28T13:39:01.364Z,103051.41
2023-02-28T13:44:29.746Z,103055.13
2023-02-28T13:49:33.180Z,103052.50
2023-02-28T13:54:41.740Z,103047.19
2023-02-28T14:00:00.045Z,103055.59
2023-02-28T14:10:31.650Z,103051.56
2023-02-28T14:15:34.038Z,103050.41
2023-02-28T14:20:32.307Z,103053.19
2023-02-28T14:25:48.720Z,103057.72
2023-02-28T14:30:58.324Z,103057.53
2023-02-28T14:36:03.813Z,103058.38
2023-02-28T14:41:07.021Z,103049.16
2023-02-28T14:46:07.334Z,103050.53
2023-02-28T14:51:03.819Z,103048.66
2023-02-28T14:56:01.180Z,103055.59
2023-02-28T15:01:00.968Z,103055.06
2023-02-28T15:06:18.867Z,103050.84
2023-02-28T15:11:20.078Z,103046.63
2023-02-28T15:16:23.359Z,103048.97
2023-02-28T15:21:24.341Z,103036.00
2023-02-28T15:26:26.034Z,103034.44
2023-02-28T15:31:43.808Z,103038.91
2023-02-28T15:36:46.963Z,103034.56
2023-02-28T15:41:43.400Z,103026.16
2023-02-28T15:46:44.184Z,103021.78
2023-02-28T15:51:40.739Z,103017.97
2023-02-28T15:56:45.427Z,103024.44
2023-02-28T16:01:41.907Z,103021.31
2023-02-28T16:06:43.230Z,103008.84
2023-02-28T16:11:46.247Z,103013.72
2023-02-28T16:16:44.980Z,103020.00
2023-02-28T16:21:41.451Z,103021.72
2023-02-28T16:26:40.669Z,103021.03
2023-02-28T16:31:39.002Z,103027.97
2023-02-28T16:36:35.459Z,103032.84
2023-02-28T16:41:32.441Z,103026.56
2023-02-28T16:46:34.405Z,103030.78
2023-02-28T16:51:33.393Z,103032.28
2023-02-28T16:56:31.003Z,103038.44
2023-02-28T17:01:28.845Z,103046.31
2023-02-28T17:06:31.500Z,103047.81
2023-02-28T17:11:28.698Z,103056.97
2023-02-28T17:16:36.505Z,103063.91
2023-02-28T17:21:35.018Z,103064.03
2023-02-28T17:26:32.281Z,103065.44
2023-02-28T17:31:30.128Z,103069.81
2023-02-28T17:36:27.592Z,103075.31
2023-02-28T17:41:25.292Z,103076.34
2023-02-28T17:46:24.646Z,103076.81
2023-02-28T17:51:23.557Z,103082.28
2023-02-28T17:56:25.915Z,103086.91
2023-02-28T18:01:23.672Z,103079.47
2023-02-28T18:06:34.452Z,103084.91
2023-02-28T18:11:43.457Z,103085.34
2023-02-28T18:16:39.995Z,103086.44
2023-02-28T18:21:36.429Z,103086.28
2023-02-28T18:26:33.004Z,103092.09
2023-02-28T18:31:29.627Z,103086.31
2023-02-28T18:36:27.508Z,103092.53
2023-02-28T18:41:24.294Z,103085.91
2023-02-28T18:46:21.990Z,103084.66
2023-02-28T18:51:21.035Z,103086.97
2023-02-28T18:56:20.320Z,103094.00
2023-02-28T19:01:20.950Z,103075.09
2023-02-28T19:06:18.771Z,103089.84
2023-02-28T19:11:17.886Z,103082.13
2023-02-28T19:16:16.502Z,103085.88
2023-02-28T19:21:15.226Z,103085.84
2023-02-28T19:26:14.352Z,103093.53
2023-02-28T19:31:20.745Z,103089.97
2023-02-28T19:36:17.273Z,103100.94
2023-02-28T19:41:15.389Z,103105.91
2023-02-28T19:46:12.434Z,103099.00
2023-02-28T19:51:12.383Z,103100.44
2023-02-28T19:56:09.990Z,103112.25
2023-02-28T20:01:08.764Z,103109.88
2023-02-28T20:06:09.743Z,103100.28
2023-02-28T20:11:10.213Z,103105.06
2023-02-28T20:16:09.577Z,103103.56
2023-02-28T20:21:09.162Z,103109.94
2023-02-28T20:26:05.881Z,103106.59
2023-02-28T20:31:02.487Z,103110.63
2023-02-28T20:36:05.225Z,103102.75
2023-02-28T20:41:02.059Z,103106.03
2023-02-28T20:46:01.807Z,103105.97
2023-02-28T20:50:59.607Z,103095.53
2023-02-28T20:55:57.184Z,103102.66
2023-02-28T21:01:25.957Z,103095.88
2023-02-28T21:06:26.394Z,103098.31
2023-02-28T21:11:28.514Z,103103.19
2023-02-28T21:16:26.915Z,103104.88
2023-02-28T21:21:25.189Z,103103.50
2023-02-28T21:26:23.798Z,103106.78
2023-02-28T21:31:22.057Z,103108.84
2023-02-28T21:36:20.934Z,103115.91
2023-02-28T21:41:20.496Z,103119.09
2023-02-28T21:46:20.885Z,103118.44
2023-02-28T21:51:26.565Z,103115.25
2023-02-28T21:56:25.522Z,103114.97
2023-02-28T22:01:22.382Z,103118.03
2023-02-28T22:06:22.674Z,103119.16
2023-02-28T22:11:20.207Z,103118.25
2023-02-28T22:16:19.634Z,103112.63
2023-02-28T22:21:18.208Z,103109.66
2023-02-28T22:26:20.127Z,103116.44
2023-02-28T22:31:18.294Z,103121.81
2023-02-28T22:36:17.138Z,103122.56
2023-02-28T22:41:14.295Z,103133.69
2023-02-28T22:46:13.507Z,103124.97
2023-02-28T22:51:14.645Z,103131.47
2023-02-28T22:56:12.504Z,103123.13
2023-02-28T23:01:14.944Z,103131.84
2023-02-28T23:06:20.138Z,103129.91
2023-02-28T23:11:22.499Z,103133.78
2023-02-28T23:16:18.960Z,103140.75
2023-02-28T23:21:15.467Z,103135.38
2023-02-28T23:26:11.943Z,103129.91
2023-02-28T23:31:08.454Z,103131.13
2023-02-28T23:36:15.308Z,103124.44
2023-02-28T23:41:13.951Z,103113.84
2023-02-28T23:46:12.852Z,103108.22
2023-02-28T23:51:16.708Z,103114.78
2023-02-28T23:56:16.080Z,103123.84
